createdAt,value
2022-12-25T19:26:08.393Z,19.90
2022-12-25T19:28:37.142Z,21.92
2022-12-25T19:31:07.814Z,21.48
2022-12-25T19:33:38.107Z,17.38
2022-12-25T19:36:10.789Z,14.75
2022-12-25T19:38:38.865Z,13.40
2022-12-25T19:41:18.784Z,21.40
2022-12-25T19:43:49.270Z,22.38
2022-12-25T19:46:21.237Z,19.27
2022-12-25T19:48:49.530Z,17.40
2022-12-25T19:51:21.762Z,17.02
2022-12-25T19:53:50.332Z,18.70
2022-12-25T19:56:18.854Z,17.05
2022-12-25T19:58:46.825Z,21.23
2022-12-25T20:01:18.506Z,17.38
2022-12-25T20:03:48.019Z,19.13
2022-12-25T20:06:22.040Z,16.48
2022-12-25T20:08:53.760Z,15.80
2022-12-25T20:11:24.282Z,14.75
2022-12-25T20:13:52.501Z,15.77
2022-12-25T20:16:20.497Z,17.35
2022-12-25T20:18:48.244Z,18.52
2022-12-25T20:21:20.124Z,16.17
2022-12-25T20:23:51.159Z,17.20
2022-12-25T20:26:23.970Z,25.48
2022-12-25T20:28:52.112Z,20.38
2022-12-25T20:31:30.141Z,17.40
2022-12-25T20:34:01.241Z,19.83
2022-12-25T20:36:36.115Z,19.25
2022-12-25T20:39:09.510Z,19.95
2022-12-25T20:41:40.535Z,19.60
2022-12-25T20:44:10.122Z,20.13
2022-12-25T20:46:38.834Z,18.13
2022-12-25T20:49:06.848Z,23.70
2022-12-25T20:51:34.666Z,15.98
2022-12-25T20:54:08.337Z,18.35
2022-12-25T20:56:36.688Z,17.67
2022-12-25T20:59:04.501Z,18.37
2022-12-25T21:01:32.519Z,17.58
2022-12-25T21:04:00.626Z,19.63
2022-12-25T21:06:28.460Z,22.35
2022-12-25T21:08:56.175Z,22.52
2022-12-25T21:11:24.192Z,20.35
2022-12-25T21:13:52.225Z,18.98
2022-12-25T21:16:22.709Z,21.23
2022-12-25T21:18:53.167Z,23.23
2022-12-25T21:21:22.123Z,26.52
2022-12-25T21:23:50.288Z,21.10
2022-12-25T21:26:28.566Z,21.17
2022-12-25T21:29:00.504Z,18.25
2022-12-25T21:31:30.221Z,17.75
2022-12-25T21:33:58.177Z,13.00
2022-12-25T21:36:30.766Z,16.83
2022-12-25T21:39:03.914Z,11.65
2022-12-25T21:41:33.579Z,10.70
2022-12-25T21:44:01.862Z,10.20
2022-12-25T21:46:30.038Z,8.68
2022-12-25T21:48:58.952Z,8.90
2022-12-25T21:51:52.126Z,11.35
2022-12-25T21:54:22.165Z,7.57
2022-12-25T21:56:50.239Z,5.07
2022-12-25T21:59:22.456Z,5.70
2022-12-25T22:01:52.407Z,6.15
2022-12-25T22:04:22.688Z,5.50
2022-12-25T22:07:09.377Z,6.25
2022-12-25T22:09:37.664Z,5.82
2022-12-25T22:12:27.395Z,7.07
2022-12-25T22:15:02.884Z,6.25
2022-12-25T22:17:54.417Z,7.65
2022-12-25T22:20:30.498Z,8.10
2022-12-25T22:22:58.672Z,6.10
2022-12-25T22:25:26.885Z,4.30
2022-12-25T22:27:55.021Z,6.05
2022-12-25T22:30:27.791Z,6.15
2022-12-25T22:32:56.010Z,5.55
2022-12-25T22:35:24.489Z,7.40
2022-12-25T22:37:54.035Z,6.60
2022-12-25T22:40:22.294Z,5.82
2022-12-25T22:42:57.493Z,5.50
2022-12-25T22:45:25.491Z,7.90
2022-12-25T22:47:53.067Z,6.28
2022-12-25T22:50:20.712Z,4.82
2022-12-25T22:52:48.278Z,4.60
2022-12-25T22:55:18.492Z,5.47
2022-12-25T22:57:46.332Z,7.50
2022-12-25T23:00:14.646Z,5.35
2022-12-25T23:02:42.422Z,7.10
2022-12-25T23:05:10.295Z,7.40
2022-12-25T23:07:37.951Z,6.50
2022-12-25T23:10:07.015Z,7.38
2022-12-25T23:15:21.061Z,4.70
2022-12-25T23:18:07.070Z,6.80
2022-12-25T23:20:55.913Z,7.25
2022-12-25T23:23:42.723Z,7.85
2022-12-25T23:26:11.360Z,8.63
2022-12-25T23:29:00.909Z,9.48
2022-12-25T23:31:37.063Z,9.25
2022-12-25T23:34:07.146Z,8.18
2022-12-25T23:36:35.390Z,6.25
2022-12-25T23:39:09.651Z,6.22
2022-12-25T23:41:40.891Z,7.32
2022-12-25T23:44:11.364Z,7.32
2022-12-25T23:46:41.062Z,6.65
2022-12-25T23:49:26.150Z,7.00
2022-12-25T23:51:57.378Z,6.00
2022-12-25T23:54:30.817Z,6.97
2022-12-25T23:56:59.512Z,5.93
2022-12-25T23:59:34.278Z,6.47
